| time (UTC) | temp F | wind direction | speed MPH | gust MPH | rain 1hr in | rain 24hr in | rain mn in | humidity % | barometer mb |
| 20260510154257 | 65 | 112 | 7.0 | 10.0 | 0.00 | 0.00 | 0.00 | 45 | 1020.8 |
| 20260510153752 | 65 | 61 | 7.0 | 8.0 | 0.00 | 0.00 | 0.00 | 47 | 1020.7 |
| 20260510153248 | 64 | 84 | 1.0 | 2.0 | 0.00 | 0.00 | 0.00 | 54 | 1020.7 |
| 20260510152745 | 64 | 49 | 5.0 | 8.0 | 0.00 | 0.00 | 0.00 | 53 | 1020.5 |
| 20260510152242 | 63 | 95 | 5.0 | 6.0 | 0.00 | 0.00 | 0.00 | 52 | 1020.8 |
| 20260510151738 | 63 | 104 | 2.0 | 5.0 | 0.00 | 0.00 | 0.00 | 53 | 1020.7 |
| 20260510151237 | 62 | 60 | 7.0 | 8.0 | 0.00 | 0.00 | 0.00 | 52 | 1020.8 |
| 20260510150732 | 62 | 59 | 6.0 | 8.0 | 0.00 | 0.00 | 0.00 | 50 | 1020.9 |
| 20260510150228 | 62 | 4 | 5.0 | 6.0 | 0.00 | 0.00 | 0.00 | 53 | 1020.7 |
| 20260510145724 | 62 | 52 | 6.0 | 8.0 | 0.00 | 0.00 | 0.00 | 54 | 1021.0 |
| 20260510145221 | 62 | 45 | 5.0 | 7.0 | 0.00 | 0.00 | 0.00 | 55 | 1020.8 |
| 20260510144717 | 62 | 73 | 3.0 | 6.0 | 0.00 | 0.00 | 0.00 | 55 | 1020.9 |
| 20260510144214 | 62 | 85 | 4.0 | 5.0 | 0.00 | 0.00 | 0.00 | 54 | 1020.9 |
| 20260510143709 | 62 | 40 | 9.0 | 11.0 | 0.00 | 0.00 | 0.00 | 54 | 1020.9 |
| 20260510143205 | 62 | 27 | 6.0 | 8.0 | 0.00 | 0.00 | 0.00 | 55 | 1020.7 |
| 20260510142702 | 62 | 87 | 3.0 | 3.0 | 0.00 | 0.00 | 0.00 | 56 | 1021.2 |
| 20260510142158 | 61 | 64 | 5.0 | 8.0 | 0.00 | 0.00 | 0.00 | 55 | 1020.9 |
| 20260510141655 | 62 | 68 | 6.0 | 7.0 | 0.00 | 0.00 | 0.00 | 56 | 1020.8 |
| 20260510141154 | 62 | 58 | 4.0 | 6.0 | 0.00 | 0.00 | 0.00 | 58 | 1020.9 |
| 20260510140650 | 61 | 73 | 3.0 | 3.0 | 0.00 | 0.00 | 0.00 | 56 | 1021.0 |
| 20260510140149 | 61 | 48 | 2.0 | 3.0 | 0.00 | 0.00 | 0.00 | 59 | 1020.8 |
| 20260510135644 | 61 | 25 | 6.0 | 8.0 | 0.00 | 0.00 | 0.00 | 57 | 1020.7 |
| 20260510135141 | 61 | 69 | 4.0 | 7.0 | 0.00 | 0.00 | 0.00 | 59 | 1020.8 |
| 20260510134638 | 61 | 15 | 3.0 | 3.0 | 0.00 | 0.00 | 0.00 | 60 | 1020.7 |
| 20260510134135 | 61 | 61 | 3.0 | 6.0 | 0.00 | 0.00 | 0.00 | 60 | 1020.5 |
| 20260510133631 | 61 | 81 | 5.0 | 8.0 | 0.00 | 0.00 | 0.00 | 61 | 1020.4 |
| 20260510133126 | 61 | 30 | 3.0 | 7.0 | 0.00 | 0.00 | 0.00 | 61 | 1020.2 |
| 20260510132624 | 60 | 49 | 3.0 | 3.0 | 0.00 | 0.00 | 0.00 | 62 | 1019.9 |
| 20260510132121 | 60 | 80 | 3.0 | 6.0 | 0.00 | 0.00 | 0.00 | 62 | 1019.5 |
| 20260510131618 | 60 | 59 | 4.0 | 5.0 | 0.00 | 0.00 | 0.00 | 63 | 1019.5 |
| 20260510131115 | 60 | 69 | 2.0 | 5.0 | 0.00 | 0.00 | 0.00 | 64 | 1019.5 |
| 20260510130612 | 60 | 34 | 5.0 | 8.0 | 0.00 | 0.00 | 0.00 | 64 | 1019.6 |
| 20260510130110 | 60 | 86 | 5.0 | 7.0 | 0.00 | 0.00 | 0.00 | 65 | 1019.5 |
| 20260510125606 | 60 | 65 | 5.0 | 6.0 | 0.00 | 0.00 | 0.00 | 66 | 1019.2 |
| 20260510125102 | 60 | 47 | 4.0 | 8.0 | 0.00 | 0.00 | 0.00 | 66 | 1019.1 |
| 20260510124558 | 60 | 3 | 4.0 | 5.0 | 0.00 | 0.00 | 0.00 | 69 | 1018.9 |
| 20260510124056 | 59 | 88 | 2.0 | 5.0 | 0.00 | 0.00 | 0.00 | 71 | 1018.8 |
| 20260510123551 | 59 | 81 | 5.0 | 7.0 | 0.00 | 0.00 | 0.00 | 72 | 1018.8 |
| 20260510123047 | 59 | 79 | 4.0 | 7.0 | 0.00 | 0.00 | 0.00 | 74 | 1018.4 |
| 20260510122543 | 59 | 85 | 4.0 | 6.0 | 0.00 | 0.00 | 0.00 | 74 | 1018.6 |
| 20260510122039 | 59 | 59 | 2.0 | 5.0 | 0.00 | 0.00 | 0.00 | 74 | 1018.5 |
| 20260510121537 | 59 | 56 | 5.0 | 8.0 | 0.00 | 0.00 | 0.00 | 75 | 1018.5 |
| 20260510121034 | 59 | 60 | 3.0 | 3.0 | 0.00 | 0.00 | 0.00 | 76 | 1018.5 |
| 20260510120531 | 59 | 49 | 3.0 | 3.0 | 0.00 | 0.00 | 0.00 | 78 | 1018.5 |
| 20260510120027 | 59 | 82 | 4.0 | 5.0 | 0.00 | 0.00 | 0.00 | 79 | 1018.2 |
| 20260510115524 | 58 | 18 | 4.0 | 6.0 | 0.00 | 0.00 | 0.00 | 80 | 1017.9 |
| 20260510115020 | 58 | 76 | 2.0 | 3.0 | 0.00 | 0.00 | 0.00 | 81 | 1018.1 |
| 20260510114516 | 58 | 67 | 4.0 | 6.0 | 0.00 | 0.00 | 0.00 | 82 | 1017.8 |
| 20260510114013 | 58 | 38 | 3.0 | 3.0 | 0.00 | 0.00 | 0.00 | 82 | 1017.8 |
| 20260510113508 | 58 | 70 | 2.0 | 2.0 | 0.00 | 0.00 | 0.00 | 82 | 1018.2 |
| 20260510113006 | 58 | 84 | 1.0 | 1.0 | 0.00 | 0.00 | 0.00 | 82 | 1017.7 |
| 20260510112502 | 58 | 172 | 1.0 | 1.0 | 0.00 | 0.00 | 0.00 | 82 | 1017.6 |
| 20260510111959 | 58 | 342 | 1.0 | 2.0 | 0.00 | 0.00 | 0.00 | 82 | 1017.5 |
| 20260510111455 | 58 | 104 | 0.0 | 0.0 | 0.00 | 0.00 | 0.00 | 81 | 1017.7 |
| 20260510110951 | 58 | 45 | 2.0 | 2.0 | 0.00 | 0.00 | 0.00 | 81 | 1017.7 |
| 20260510110448 | 59 | 82 | 1.0 | 1.0 | 0.00 | 0.00 | 0.00 | 81 | 1017.6 |
| 20260510105944 | 59 | 47 | 1.0 | 1.0 | 0.00 | 0.00 | 0.00 | 81 | 1017.7 |
| 20260510105439 | 59 | 41 | 1.0 | 1.0 | 0.00 | 0.00 | 0.00 | 81 | 1017.5 |
| 20260510104934 | 59 | 61 | 3.0 | 3.0 | 0.00 | 0.00 | 0.00 | 81 | 1017.4 |
| 20260510104431 | 59 | 79 | 3.0 | 5.0 | 0.00 | 0.00 | 0.00 | 80 | 1017.2 |
| 20260510103928 | 59 | 85 | 1.0 | 2.0 | 0.00 | 0.00 | 0.00 | 80 | 1017.2 |
| 20260510103426 | 60 | 81 | 2.0 | 3.0 | 0.00 | 0.00 | 0.00 | 80 | 1017.1 |
| 20260510102920 | 60 | 68 | 0.0 | 1.0 | 0.00 | 0.00 | 0.00 | 80 | 1017.0 |
| 20260510102416 | 60 | 62 | 1.0 | 2.0 | 0.00 | 0.00 | 0.00 | 79 | 1017.2 |
| 20260510101914 | 60 | 53 | 4.0 | 6.0 | 0.00 | 0.00 | 0.00 | 80 | 1016.9 |
| 20260510101411 | 60 | 98 | 0.0 | 1.0 | 0.00 | 0.00 | 0.00 | 80 | 1016.7 |
| 20260510100909 | 60 | 38 | 3.0 | 3.0 | 0.00 | 0.00 | 0.00 | 79 | 1016.7 |
| 20260510100406 | 60 | 88 | 2.0 | 2.0 | 0.00 | 0.00 | 0.00 | 79 | 1016.6 |
| 20260510095902 | 60 | 69 | 2.0 | 2.0 | 0.00 | 0.00 | 0.00 | 80 | 1016.4 |
| 20260510095357 | 60 | 92 | 0.0 | 1.0 | 0.00 | 0.00 | 0.00 | 80 | 1016.6 |
| 20260510094856 | 60 | 37 | 2.0 | 2.0 | 0.00 | 0.00 | 0.00 | 80 | 1016.4 |
| 20260510094351 | 60 | 78 | 1.0 | 1.0 | 0.00 | 0.00 | 0.00 | 80 | 1016.5 |
| 20260510093848 | 61 | 98 | 1.0 | 1.0 | 0.00 | 0.00 | 0.00 | 80 | 1016.4 |
| 20260510093344 | 61 | 68 | 1.0 | 2.0 | 0.00 | 0.00 | 0.00 | 79 | 1016.4 |
| 20260510092840 | 61 | 46 | 5.0 | 7.0 | 0.00 | 0.00 | 0.00 | 80 | 1016.6 |
| 20260510092337 | 61 | 22 | 2.0 | 2.0 | 0.00 | 0.00 | 0.00 | 79 | 1016.3 |
| 20260510091832 | 61 | 81 | 2.0 | 2.0 | 0.00 | 0.00 | 0.00 | 79 | 1016.1 |
| 20260510091330 | 61 | 92 | 3.0 | 5.0 | 0.00 | 0.00 | 0.00 | 80 | 1016.1 |
| 20260510090826 | 61 | 73 | 2.0 | 2.0 | 0.00 | 0.00 | 0.00 | 80 | 1015.9 |
| 20260510090323 | 61 | 46 | 2.0 | 2.0 | 0.00 | 0.00 | 0.00 | 80 | 1016.0 |
| 20260510085819 | 62 | 7 | 1.0 | 2.0 | 0.00 | 0.00 | 0.00 | 79 | 1015.8 |
| 20260510085318 | 62 | 39 | 2.0 | 2.0 | 0.00 | 0.00 | 0.00 | 78 | 1015.7 |
| 20260510084814 | 62 | 33 | 2.0 | 2.0 | 0.00 | 0.00 | 0.00 | 77 | 1015.5 |
| 20260510084312 | 62 | 89 | 1.0 | 2.0 | 0.00 | 0.00 | 0.00 | 77 | 1015.6 |
| 20260510083808 | 62 | 207 | 1.0 | 1.0 | 0.00 | 0.00 | 0.00 | 77 | 1015.5 |
| 20260510083305 | 62 | 56 | 1.0 | 1.0 | 0.00 | 0.00 | 0.00 | 77 | 1015.3 |
| 20260510082801 | 63 | 207 | 1.0 | 1.0 | 0.00 | 0.00 | 0.00 | 77 | 1015.1 |
| 20260510082258 | 63 | 77 | 1.0 | 2.0 | 0.00 | 0.00 | 0.00 | 76 | 1015.2 |
| 20260510081756 | 63 | 64 | 2.0 | 3.0 | 0.00 | 0.00 | 0.00 | 75 | 1015.3 |
| 20260510081253 | 64 | 58 | 1.0 | 2.0 | 0.00 | 0.00 | 0.00 | 74 | 1015.4 |
| 20260510080748 | 64 | 52 | 2.0 | 2.0 | 0.00 | 0.00 | 0.00 | 74 | 1015.2 |
| 20260510080244 | 64 | 66 | 1.0 | 2.0 | 0.00 | 0.00 | 0.00 | 74 | 1015.1 |
| 20260510075741 | 64 | 40 | 1.0 | 2.0 | 0.00 | 0.00 | 0.00 | 74 | 1015.1 |
| 20260510075239 | 64 | 55 | 2.0 | 2.0 | 0.00 | 0.00 | 0.00 | 74 | 1015.3 |
| 20260510074735 | 64 | 76 | 2.0 | 5.0 | 0.00 | 0.00 | 0.00 | 73 | 1014.9 |
| 20260510074232 | 64 | 55 | 2.0 | 2.0 | 0.00 | 0.00 | 0.00 | 72 | 1015.0 |
| 20260510073728 | 64 | 64 | 2.0 | 2.0 | 0.00 | 0.00 | 0.00 | 72 | 1014.9 |
| 20260510073224 | 64 | 68 | 2.0 | 3.0 | 0.00 | 0.00 | 0.00 | 73 | 1014.9 |
| 20260510072720 | 65 | 123 | 1.0 | 1.0 | 0.00 | 0.00 | 0.00 | 73 | 1014.8 |
| 20260510072217 | 64 | 352 | 1.0 | 2.0 | 0.00 | 0.00 | 0.00 | 73 | 1014.7 |
| 20260510071714 | 63 | 119 | 2.0 | 2.0 | 0.00 | 0.00 | 0.00 | 77 | 1014.7 |
| 20260510071210 | 62 | 212 | 1.0 | 1.0 | 0.00 | 0.00 | 0.00 | 80 | 1014.6 |
| 20260510070708 | 62 | 223 | 0.0 | 0.0 | 0.00 | 0.00 | 0.00 | 82 | 1014.7 |
| 20260510070205 | 63 | 223 | 0.0 | 0.0 | 0.00 | 0.00 | 0.00 | 81 | 1015.0 |
| 20260510065700 | 62 | 326 | 1.0 | 1.0 | 0.00 | 0.00 | 0.00 | 82 | 1014.7 |
| 20260510065157 | 62 | 207 | 1.0 | 1.0 | 0.00 | 0.00 | 0.00 | 83 | 1014.8 |
| 20260510064653 | 62 | 187 | 0.0 | 0.0 | 0.00 | 0.00 | 0.00 | 83 | 1014.8 |
| 20260510064150 | 62 | 235 | 0.0 | 0.0 | 0.00 | 0.00 | 0.00 | 82 | 1014.8 |
| 20260510063648 | 62 | 235 | 0.0 | 0.0 | 0.00 | 0.00 | 0.00 | 82 | 1014.4 |
| 20260510063144 | 62 | 235 | 0.0 | 0.0 | 0.00 | 0.00 | 0.00 | 82 | 1014.7 |
| 20260510062640 | 61 | 235 | 0.0 | 0.0 | 0.00 | 0.00 | 0.00 | 81 | 1014.4 |
| 20260510062136 | 62 | 235 | 0.0 | 0.0 | 0.00 | 0.00 | 0.00 | 81 | 1014.3 |
| 20260510061631 | 62 | 235 | 0.0 | 0.0 | 0.00 | 0.00 | 0.00 | 81 | 1014.3 |
| 20260510061129 | 62 | 235 | 0.0 | 0.0 | 0.00 | 0.00 | 0.00 | 81 | 1014.6 |
| 20260510060625 | 62 | 235 | 0.0 | 0.0 | 0.00 | 0.00 | 0.00 | 81 | 1014.4 |
| 20260510060122 | 62 | 233 | 0.0 | 0.0 | 0.00 | 0.00 | 0.00 | 80 | 1014.5 |
| 20260510055618 | 62 | 233 | 0.0 | 0.0 | 0.00 | 0.00 | 0.00 | 79 | 1014.4 |
| 20260510055116 | 62 | 233 | 0.0 | 0.0 | 0.00 | 0.00 | 0.00 | 79 | 1014.6 |
| 20260510054612 | 62 | 233 | 0.0 | 0.0 | 0.00 | 0.00 | 0.00 | 79 | 1014.4 |
| 20260510054107 | 63 | 232 | 0.0 | 0.0 | 0.00 | 0.00 | 0.00 | 79 | 1014.5 |
| 20260510053606 | 64 | 233 | 0.0 | 0.0 | 0.00 | 0.00 | 0.00 | 77 | 1014.5 |
| 20260510053104 | 64 | 234 | 0.0 | 0.0 | 0.00 | 0.00 | 0.00 | 75 | 1014.1 |
| 20260510052559 | 64 | 234 | 0.0 | 0.0 | 0.00 | 0.00 | 0.00 | 73 | 1014.3 |
| 20260510052056 | 65 | 234 | 0.0 | 0.0 | 0.00 | 0.00 | 0.00 | 72 | 1014.5 |
| 20260510051552 | 66 | 234 | 0.0 | 0.0 | 0.00 | 0.00 | 0.00 | 71 | 1014.4 |
| 20260510051049 | 66 | 234 | 0.0 | 0.0 | 0.00 | 0.00 | 0.00 | 69 | 1014.4 |
| 20260510050546 | 66 | 234 | 0.0 | 0.0 | 0.00 | 0.00 | 0.00 | 68 | 1014.6 |
| 20260510050043 | 67 | 234 | 0.0 | 0.0 | 0.00 | 0.01 | 0.01 | 67 | 1014.8 |
| 20260510045540 | 67 | 234 | 0.0 | 0.0 | 0.00 | 0.01 | 0.01 | 67 | 1014.6 |
| 20260510045036 | 67 | 234 | 0.0 | 0.0 | 0.00 | 0.01 | 0.01 | 67 | 1014.6 |
| 20260510044533 | 68 | 233 | 0.0 | 0.0 | 0.00 | 0.01 | 0.01 | 66 | 1014.4 |
| 20260510044030 | 68 | 233 | 0.0 | 0.0 | 0.00 | 0.01 | 0.01 | 68 | 1014.4 |
| 20260510043526 | 68 | 232 | 0.0 | 0.0 | 0.00 | 0.01 | 0.01 | 66 | 1014.6 |
| 20260510043021 | 68 | 224 | 1.0 | 1.0 | 0.00 | 0.01 | 0.01 | 66 | 1014.4 |
| 20260510042515 | 68 | 237 | 0.0 | 0.0 | 0.00 | 0.01 | 0.01 | 65 | 1014.1 |
| 20260510042010 | 68 | 232 | 0.0 | 0.0 | 0.00 | 0.01 | 0.01 | 66 | 1014.1 |
| 20260510041508 | 68 | 236 | 0.0 | 0.0 | 0.00 | 0.01 | 0.01 | 66 | 1014.3 |
| 20260510041006 | 68 | 235 | 0.0 | 0.0 | 0.00 | 0.01 | 0.01 | 67 | 1014.0 |
| 20260510040502 | 68 | 241 | 0.0 | 0.0 | 0.00 | 0.01 | 0.01 | 66 | 1014.1 |
| 20260510035957 | 68 | 240 | 0.0 | 0.0 | 0.00 | 0.01 | 0.01 | 67 | 1014.0 |
| 20260510035455 | 68 | 240 | 0.0 | 0.0 | 0.00 | 0.01 | 0.01 | 68 | 1013.9 |
| 20260510034954 | 68 | 241 | 0.0 | 1.0 | 0.00 | 0.01 | 0.01 | 70 | 1013.9 |
| 20260510034453 | 67 | 42 | 2.0 | 2.0 | 0.00 | 0.01 | 0.01 | 70 | 1013.7 |
| 20260510033948 | 67 | 284 | 3.0 | 3.0 | 0.00 | 0.01 | 0.01 | 70 | 1013.6 |
| 20260510033445 | 67 | 251 | 0.0 | 1.0 | 0.00 | 0.01 | 0.01 | 68 | 1013.1 |
| 20260510032942 | 67 | 236 | 1.0 | 1.0 | 0.00 | 0.01 | 0.01 | 69 | 1013.0 |
| 20260510032439 | 67 | 235 | 1.0 | 1.0 | 0.00 | 0.01 | 0.01 | 69 | 1013.1 |
| 20260510031939 | 67 | 234 | 1.0 | 1.0 | 0.00 | 0.01 | 0.01 | 69 | 1013.1 |
| 20260510031435 | 68 | 239 | 1.0 | 1.0 | 0.00 | 0.01 | 0.01 | 68 | 1012.8 |
| 20260510030931 | 67 | 238 | 1.0 | 1.0 | 0.00 | 0.01 | 0.01 | 68 | 1012.7 |
| 20260510030426 | 67 | 241 | 1.0 | 2.0 | 0.00 | 0.01 | 0.01 | 69 | 1013.0 |
| 20260510025924 | 67 | 241 | 1.0 | 1.0 | 0.00 | 0.01 | 0.01 | 70 | 1012.8 |
| 20260510025421 | 67 | 237 | 1.0 | 1.0 | 0.00 | 0.01 | 0.01 | 70 | 1012.7 |
| 20260510024919 | 68 | 230 | 1.0 | 1.0 | 0.00 | 0.01 | 0.01 | 72 | 1012.5 |
| 20260510024415 | 69 | 242 | 1.0 | 1.0 | 0.00 | 0.01 | 0.01 | 67 | 1012.6 |
| 20260510023911 | 69 | 247 | 1.0 | 1.0 | 0.00 | 0.01 | 0.01 | 66 | 1012.4 |
| 20260510023407 | 69 | 245 | 1.0 | 2.0 | 0.00 | 0.01 | 0.01 | 67 | 1012.4 |
| 20260510022905 | 69 | 243 | 1.0 | 1.0 | 0.00 | 0.01 | 0.01 | 66 | 1012.3 |
| 20260510022404 | 69 | 240 | 1.0 | 1.0 | 0.00 | 0.01 | 0.01 | 68 | 1012.0 |
| 20260510021903 | 69 | 240 | 0.0 | 1.0 | 0.00 | 0.01 | 0.01 | 66 | 1012.0 |
| 20260510021401 | 69 | 241 | 1.0 | 1.0 | 0.00 | 0.01 | 0.01 | 67 | 1011.9 |
| 20260510020857 | 69 | 241 | 0.0 | 0.0 | 0.00 | 0.01 | 0.01 | 68 | 1011.7 |
| 20260510020352 | 70 | 241 | 0.0 | 1.0 | 0.00 | 0.01 | 0.01 | 66 | 1011.4 |
| 20260510015848 | 69 | 241 | 0.0 | 1.0 | 0.00 | 0.01 | 0.01 | 66 | 1011.6 |
| 20260510015344 | 69 | 239 | 1.0 | 1.0 | 0.00 | 0.01 | 0.01 | 67 | 1011.5 |
| 20260510014839 | 70 | 239 | 0.0 | 1.0 | 0.00 | 0.01 | 0.01 | 67 | 1011.4 |
| 20260510014337 | 70 | 240 | 0.0 | 1.0 | 0.00 | 0.01 | 0.01 | 66 | 1011.2 |
| 20260510013833 | 71 | 240 | 1.0 | 1.0 | 0.00 | 0.01 | 0.01 | 64 | 1011.1 |
| 20260510013329 | 71 | 235 | 0.0 | 0.0 | 0.00 | 0.01 | 0.01 | 63 | 1011.0 |
| 20260510012824 | 72 | 232 | 1.0 | 1.0 | 0.00 | 0.01 | 0.01 | 61 | 1010.8 |
| 20260510012323 | 72 | 234 | 1.0 | 1.0 | 0.00 | 0.01 | 0.01 | 62 | 1010.7 |
| 20260510011819 | 72 | 234 | 1.0 | 1.0 | 0.00 | 0.01 | 0.01 | 61 | 1010.8 |
| 20260510011314 | 73 | 234 | 0.0 | 1.0 | 0.00 | 0.01 | 0.01 | 59 | 1010.8 |
| 20260510010811 | 73 | 234 | 1.0 | 1.0 | 0.00 | 0.01 | 0.01 | 60 | 1010.7 |
| 20260510010308 | 74 | 229 | 1.0 | 1.0 | 0.00 | 0.01 | 0.01 | 57 | 1010.7 |
| 20260510005805 | 75 | 228 | 0.0 | 1.0 | 0.00 | 0.01 | 0.01 | 58 | 1010.3 |
| 20260510005301 | 76 | 222 | 1.0 | 1.0 | 0.00 | 0.01 | 0.01 | 57 | 1010.3 |
| 20260510004759 | 76 | 224 | 1.0 | 1.0 | 0.00 | 0.01 | 0.01 | 55 | 1010.4 |
| 20260510004256 | 77 | 233 | 1.0 | 1.0 | 0.00 | 0.01 | 0.01 | 53 | 1010.4 |
| 20260510003754 | 78 | 220 | 1.0 | 1.0 | 0.00 | 0.01 | 0.01 | 51 | 1010.6 |
| 20260510003250 | 78 | 215 | 1.0 | 1.0 | 0.00 | 0.01 | 0.01 | 50 | 1010.3 |
| 20260510002749 | 80 | 207 | 1.0 | 2.0 | 0.00 | 0.01 | 0.01 | 47 | 1010.3 |
| 20260510002247 | 79 | 230 | 1.0 | 2.0 | 0.00 | 0.01 | 0.01 | 48 | 1010.4 |
| 20260510001743 | 78 | 215 | 1.0 | 1.0 | 0.00 | 0.01 | 0.01 | 50 | 1010.4 |
| 20260510001242 | 78 | 237 | 3.0 | 3.0 | 0.00 | 0.01 | 0.01 | 48 | 1010.4 |
| 20260510000737 | 78 | 220 | 1.0 | 1.0 | 0.00 | 0.01 | 0.01 | 49 | 1010.1 |
| 20260510000235 | 79 | 220 | 3.0 | 3.0 | 0.00 | 0.01 | 0.01 | 48 | 1010.3 |
| 20260509235731 | 79 | 212 | 2.0 | 2.0 | 0.00 | 0.01 | 0.01 | 48 | 1010.3 |
| 20260509235228 | 79 | 225 | 3.0 | 3.0 | 0.00 | 0.01 | 0.01 | 46 | 1010.1 |
| 20260509234724 | 79 | 211 | 2.0 | 2.0 | 0.00 | 0.01 | 0.01 | 46 | 1010.2 |
| 20260509234221 | 80 | 230 | 1.0 | 2.0 | 0.00 | 0.01 | 0.01 | 47 | 1010.3 |
| 20260509233719 | 79 | 208 | 2.0 | 2.0 | 0.00 | 0.01 | 0.01 | 45 | 1010.3 |
| 20260509233217 | 79 | 220 | 1.0 | 2.0 | 0.00 | 0.01 | 0.01 | 48 | 1010.3 |
| 20260509232712 | 79 | 245 | 1.0 | 1.0 | 0.00 | 0.01 | 0.01 | 52 | 1010.3 |
| 20260509232210 | 79 | 230 | 1.0 | 1.0 | 0.00 | 0.01 | 0.01 | 52 | 1010.2 |
| 20260509231706 | 80 | 230 | 0.0 | 0.0 | 0.00 | 0.01 | 0.01 | 49 | 1010.7 |
| 20260509231204 | 80 | 232 | 0.0 | 1.0 | 0.00 | 0.01 | 0.01 | 46 | 1010.2 |
| 20260509230701 | 80 | 232 | 1.0 | 1.0 | 0.00 | 0.01 | 0.01 | 44 | 1010.3 |
| 20260509230157 | 80 | 233 | 1.0 | 1.0 | 0.00 | 0.01 | 0.01 | 42 | 1010.1 |
| 20260509225653 | 80 | 241 | 1.0 | 1.0 | 0.00 | 0.01 | 0.01 | 41 | 1010.3 |
| 20260509225149 | 81 | 237 | 1.0 | 1.0 | 0.00 | 0.01 | 0.01 | 43 | 1010.2 |
| 20260509224644 | 80 | 220 | 1.0 | 2.0 | 0.00 | 0.01 | 0.01 | 41 | 1010.4 |
| 20260509224142 | 80 | 226 | 1.0 | 1.0 | 0.00 | 0.01 | 0.01 | 42 | 1010.3 |
| 20260509223638 | 80 | 231 | 1.0 | 1.0 | 0.00 | 0.01 | 0.01 | 42 | 1010.2 |
| 20260509223136 | 81 | 240 | 2.0 | 2.0 | 0.00 | 0.01 | 0.01 | 43 | 1010.3 |
| 20260509222633 | 82 | 233 | 1.0 | 1.0 | 0.00 | 0.01 | 0.01 | 42 | 1010.6 |
| 20260509222128 | 82 | 229 | 1.0 | 1.0 | 0.00 | 0.01 | 0.01 | 42 | 1010.1 |
| 20260509221624 | 82 | 218 | 3.0 | 5.0 | 0.00 | 0.01 | 0.01 | 40 | 1010.4 |
| 20260509221120 | 82 | 223 | 1.0 | 1.0 | 0.00 | 0.01 | 0.01 | 40 | 1010.3 |
| 20260509220616 | 82 | 222 | 2.0 | 2.0 | 0.00 | 0.01 | 0.01 | 38 | 1010.2 |
| 20260509220113 | 83 | 244 | 2.0 | 2.0 | 0.00 | 0.01 | 0.01 | 35 | 1010.3 |
| 20260509215608 | 83 | 242 | 3.0 | 5.0 | 0.00 | 0.01 | 0.01 | 36 | 1010.2 |
| 20260509215106 | 84 | 223 | 4.0 | 5.0 | 0.00 | 0.01 | 0.01 | 35 | 1010.3 |
| 20260509214602 | 85 | 219 | 3.0 | 3.0 | 0.00 | 0.01 | 0.01 | 34 | 1010.3 |
| 20260509214059 | 85 | 230 | 1.0 | 2.0 | 0.00 | 0.01 | 0.01 | 35 | 1010.0 |
| 20260509213555 | 85 | 241 | 4.0 | 5.0 | 0.00 | 0.01 | 0.01 | 33 | 1010.3 |
| 20260509213052 | 85 | 227 | 2.0 | 2.0 | 0.00 | 0.01 | 0.01 | 36 | 1010.3 |
| 20260509212549 | 86 | 239 | 2.0 | 2.0 | 0.00 | 0.01 | 0.01 | 33 | 1010.4 |
| 20260509212046 | 85 | 235 | 0.0 | 0.0 | 0.00 | 0.01 | 0.01 | 36 | 1010.4 |
| 20260509211541 | 85 | 234 | 5.0 | 6.0 | 0.00 | 0.01 | 0.01 | 34 | 1010.4 |
| 20260509211039 | 86 | 223 | 2.0 | 2.0 | 0.00 | 0.01 | 0.01 | 34 | 1010.7 |
| 20260509210535 | 87 | 267 | 1.0 | 1.0 | 0.00 | 0.01 | 0.01 | 34 | 1010.6 |
| 20260509210032 | 86 | 247 | 1.0 | 2.0 | 0.00 | 0.01 | 0.01 | 36 | 1010.7 |
| 20260509205526 | 84 | 239 | 0.0 | 0.0 | 0.00 | 0.01 | 0.01 | 38 | 1010.6 |
| 20260509205022 | 84 | 233 | 0.0 | 1.0 | 0.00 | 0.01 | 0.01 | 36 | 1010.7 |
| 20260509204518 | 83 | 227 | 3.0 | 3.0 | 0.00 | 0.01 | 0.01 | 37 | 1010.8 |
| 20260509204015 | 84 | 224 | 4.0 | 7.0 | 0.00 | 0.01 | 0.01 | 35 | 1010.8 |
| 20260509203510 | 85 | 230 | 1.0 | 1.0 | 0.00 | 0.01 | 0.01 | 35 | 1010.9 |
| 20260509203009 | 85 | 248 | 3.0 | 3.0 | 0.00 | 0.01 | 0.01 | 35 | 1011.1 |
| 20260509202504 | 85 | 215 | 1.0 | 2.0 | 0.00 | 0.01 | 0.01 | 36 | 1011.0 |
| 20260509201959 | 85 | 227 | 1.0 | 1.0 | 0.00 | 0.01 | 0.01 | 35 | 1011.1 |
| 20260509201454 | 85 | 231 | 0.0 | 1.0 | 0.00 | 0.01 | 0.01 | 35 | 1011.1 |
| 20260509200951 | 84 | 201 | 0.0 | 1.0 | 0.00 | 0.01 | 0.01 | 40 | 1011.2 |
| 20260509200446 | 84 | 231 | 3.0 | 3.0 | 0.00 | 0.01 | 0.01 | 38 | 1011.3 |
| 20260509195943 | 84 | 228 | 2.0 | 2.0 | 0.00 | 0.01 | 0.01 | 38 | 1011.2 |
| 20260509195439 | 83 | 222 | 2.0 | 2.0 | 0.00 | 0.01 | 0.01 | 39 | 1011.1 |
| 20260509194938 | 84 | 260 | 3.0 | 3.0 | 0.00 | 0.01 | 0.01 | 38 | 1011.6 |
| 20260509194434 | 84 | 225 | 4.0 | 5.0 | 0.00 | 0.01 | 0.01 | 38 | 1011.4 |
| 20260509193931 | 83 | 74 | 2.0 | 2.0 | 0.00 | 0.01 | 0.01 | 41 | 1011.5 |
| 20260509193431 | 84 | 233 | 5.0 | 8.0 | 0.00 | 0.01 | 0.01 | 37 | 1011.3 |
| 20260509192927 | 84 | 233 | 4.0 | 5.0 | 0.00 | 0.01 | 0.01 | 40 | 1011.2 |
| 20260509192424 | 83 | 212 | 1.0 | 1.0 | 0.00 | 0.01 | 0.01 | 41 | 1011.3 |
| 20260509191919 | 83 | 208 | 1.0 | 1.0 | 0.00 | 0.01 | 0.01 | 40 | 1011.6 |
| 20260509191414 | 83 | 195 | 4.0 | 6.0 | 0.00 | 0.01 | 0.01 | 39 | 1011.5 |
| 20260509190911 | 83 | 238 | 2.0 | 2.0 | 0.00 | 0.01 | 0.01 | 41 | 1011.4 |
| 20260509190408 | 83 | 234 | 3.0 | 3.0 | 0.00 | 0.01 | 0.01 | 43 | 1011.6 |
| 20260509185906 | 82 | 258 | 2.0 | 2.0 | 0.00 | 0.01 | 0.01 | 44 | 1011.3 |
| 20260509185403 | 82 | 223 | 2.0 | 2.0 | 0.00 | 0.01 | 0.01 | 40 | 1011.7 |
| 20260509184859 | 82 | 261 | 3.0 | 3.0 | 0.00 | 0.01 | 0.01 | 39 | 1011.6 |
| 20260509184356 | 81 | 271 | 4.0 | 5.0 | 0.00 | 0.01 | 0.01 | 40 | 1011.6 |
| 20260509183854 | 82 | 235 | 5.0 | 7.0 | 0.00 | 0.01 | 0.01 | 42 | 1011.6 |
| 20260509183348 | 82 | 224 | 2.0 | 2.0 | 0.00 | 0.01 | 0.01 | 47 | 1011.7 |
| 20260509182844 | 82 | 253 | 2.0 | 2.0 | 0.00 | 0.01 | 0.01 | 43 | 1011.6 |
| 20260509182341 | 82 | 234 | 3.0 | 3.0 | 0.00 | 0.01 | 0.01 | 45 | 1011.6 |
| 20260509181838 | 82 | 248 | 1.0 | 2.0 | 0.00 | 0.01 | 0.01 | 46 | 1011.7 |
| 20260509181336 | 81 | 253 | 2.0 | 2.0 | 0.00 | 0.01 | 0.01 | 44 | 1011.8 |
| 20260509180833 | 81 | 213 | 3.0 | 3.0 | 0.00 | 0.01 | 0.01 | 43 | 1011.7 |
| 20260509180329 | 80 | 229 | 1.0 | 1.0 | 0.00 | 0.01 | 0.01 | 45 | 1011.7 |
| 20260509175826 | 80 | 228 | 4.0 | 5.0 | 0.00 | 0.01 | 0.01 | 43 | 1011.6 |
| 20260509175322 | 79 | 212 | 7.0 | 9.0 | 0.00 | 0.01 | 0.01 | 44 | 1011.8 |
| 20260509174818 | 80 | 249 | 3.0 | 3.0 | 0.00 | 0.01 | 0.01 | 46 | 1011.8 |
| 20260509174314 | 81 | 237 | 1.0 | 2.0 | 0.00 | 0.01 | 0.01 | 48 | 1011.8 |
| 20260509173810 | 81 | 231 | 2.0 | 3.0 | 0.00 | 0.01 | 0.01 | 48 | 1011.8 |
| 20260509173306 | 80 | 234 | 1.0 | 2.0 | 0.00 | 0.01 | 0.01 | 45 | 1011.8 |
| 20260509172801 | 79 | 356 | 1.0 | 1.0 | 0.00 | 0.01 | 0.01 | 48 | 1011.9 |
| 20260509172259 | 80 | 259 | 3.0 | 5.0 | 0.00 | 0.01 | 0.01 | 49 | 1012.0 |
| 20260509171754 | 80 | 216 | 1.0 | 1.0 | 0.00 | 0.01 | 0.01 | 47 | 1012.2 |
| 20260509171251 | 79 | 263 | 3.0 | 3.0 | 0.00 | 0.01 | 0.01 | 47 | 1012.2 |
| 20260509170747 | 78 | 235 | 1.0 | 1.0 | 0.00 | 0.01 | 0.01 | 48 | 1012.3 |
| 20260509170243 | 78 | 241 | 5.0 | 6.0 | 0.00 | 0.01 | 0.01 | 46 | 1012.1 |
| 20260509165742 | 78 | 244 | 3.0 | 6.0 | 0.00 | 0.01 | 0.01 | 49 | 1011.9 |
| 20260509165237 | 77 | 268 | 4.0 | 6.0 | 0.00 | 0.01 | 0.01 | 51 | 1012.1 |
| 20260509164734 | 77 | 205 | 3.0 | 3.0 | 0.00 | 0.01 | 0.01 | 49 | 1012.2 |
| 20260509164229 | 78 | 217 | 1.0 | 1.0 | 0.00 | 0.01 | 0.01 | 50 | 1012.3 |
| 20260509163727 | 77 | 213 | 1.0 | 2.0 | 0.00 | 0.01 | 0.01 | 55 | 1012.2 |
| 20260509163223 | 77 | 221 | 0.0 | 1.0 | 0.00 | 0.01 | 0.01 | 56 | 1012.1 |
| 20260509162721 | 76 | 223 | 1.0 | 1.0 | 0.00 | 0.01 | 0.01 | 53 | 1012.3 |
| 20260509162216 | 76 | 257 | 5.0 | 6.0 | 0.00 | 0.01 | 0.01 | 51 | 1012.2 |
| 20260509161712 | 75 | 236 | 4.0 | 6.0 | 0.00 | 0.01 | 0.01 | 53 | 1012.1 |
| 20260509161208 | 75 | 249 | 3.0 | 5.0 | 0.00 | 0.01 | 0.01 | 55 | 1012.3 |
| 20260509160703 | 74 | 238 | 1.0 | 2.0 | 0.00 | 0.01 | 0.01 | 58 | 1012.2 |
| 20260509160200 | 74 | 243 | 3.0 | 3.0 | 0.00 | 0.01 | 0.01 | 57 | 1012.5 |
| 20260509155655 | 73 | 215 | 4.0 | 5.0 | 0.00 | 0.01 | 0.01 | 60 | 1012.3 |
| 20260509155152 | 73 | 214 | 3.0 | 5.0 | 0.00 | 0.01 | 0.01 | 62 | 1012.6 |
| 20260509154648 | 73 | 222 | 1.0 | 2.0 | 0.00 | 0.01 | 0.01 | 63 | 1012.3 |